Time;durP1;ratioP1;P1;durP2;ratioP2;P2;SDS_P1;SDS_P2;PMS_P1;PMS_P2;Temp;Humidity;BMP_temperature;BMP_pressure;BME280_temperature;BME280_humidity;BME280_pressure;Samples;Min_cycle;Max_cycle;Signal;HPM_P1;HPM_P2
2022/03/16 00:00:13;;;;;;;12.48;8.88;;;13.20;96.70;;;;;;4990164;28;20054;-78
2022/03/16 00:02:47;;;;;;;13.68;9.55;;;13.20;96.70;;;;;;4969610;28;20539;-75
2022/03/16 00:05:16;;;;;;;10.45;8.55;;;13.20;96.70;;;;;;4987114;28;20393;-77
2022/03/16 00:07:45;;;;;;;12.13;8.90;;;13.20;96.70;;;;;;4969386;28;20038;-77
2022/03/16 00:10:13;;;;;;;11.70;8.65;;;13.10;96.70;;;;;;5019252;28;20050;-78
2022/03/16 00:12:42;;;;;;;12.35;9.10;;;13.20;96.70;;;;;;4970173;28;20701;-74
2022/03/16 00:15:11;;;;;;;16.38;9.32;;;13.10;96.70;;;;;;4973919;28;20050;-75
2022/03/16 00:17:41;;;;;;;12.02;8.73;;;13.20;96.70;;;;;;4972958;28;20052;-78
2022/03/16 00:20:11;;;;;;;11.88;9.10;;;13.20;96.70;;;;;;4988747;28;20042;-77
2022/03/16 00:22:41;;;;;;;12.85;9.15;;;13.20;96.70;;;;;;5001119;28;20057;-76
2022/03/16 00:25:10;;;;;;;11.75;8.38;;;13.10;96.70;;;;;;5004853;28;20050;-77
2022/03/16 00:27:42;;;;;;;12.57;8.90;;;13.10;96.70;;;;;;4979708;28;20060;-76
2022/03/16 00:30:12;;;;;;;10.55;7.45;;;13.10;96.70;;;;;;5007917;28;20046;-81
2022/03/16 00:32:42;;;;;;;9.30;8.30;;;13.10;96.70;;;;;;4973192;28;20046;-79
2022/03/16 00:35:11;;;;;;;14.88;8.70;;;13.10;96.70;;;;;;4991090;28;20058;-79
2022/03/16 00:37:40;;;;;;;11.98;8.07;;;13.10;96.70;;;;;;5007908;28;20046;-80
2022/03/16 00:40:10;;;;;;;13.38;8.60;;;13.10;96.70;;;;;;4990593;28;20038;-79
2022/03/16 00:42:39;;;;;;;12.27;7.82;;;13.10;96.70;;;;;;5005066;28;20460;-79
2022/03/16 00:45:08;;;;;;;12.10;8.15;;;13.10;96.70;;;;;;4986318;28;20052;-80
2022/03/16 00:47:37;;;;;;;10.95;8.23;;;13.20;96.70;;;;;;4988605;28;20050;-80
2022/03/16 00:50:07;;;;;;;11.35;8.73;;;13.10;96.70;;;;;;4972613;28;20046;-80
2022/03/16 00:52:37;;;;;;;10.85;8.45;;;13.10;96.70;;;;;;5005369;28;20046;-79
2022/03/16 00:55:06;;;;;;;11.05;8.57;;;13.00;96.70;;;;;;4993852;28;20053;-80
2022/03/16 00:57:34;;;;;;;10.23;7.57;;;13.00;96.70;;;;;;4972682;28;20562;-79
2022/03/16 01:00:04;;;;;;;12.45;8.55;;;13.00;96.70;;;;;;4976597;28;20516;-80
2022/03/16 01:02:32;;;;;;;10.48;8.50;;;13.00;96.70;;;;;;5004292;28;20058;-79
2022/03/16 01:05:01;;;;;;;11.55;8.45;;;13.00;96.70;;;;;;4989770;28;20042;-79
2022/03/16 01:07:29;;;;;;;9.70;8.18;;;13.10;96.70;;;;;;4983745;28;20461;-75
2022/03/16 01:09:59;;;;;;;9.65;7.60;;;13.10;96.70;;;;;;4969903;28;20042;-75
2022/03/16 01:12:28;;;;;;;10.50;8.00;;;13.10;96.70;;;;;;4984655;28;20057;-75
2022/03/16 01:14:56;;;;;;;12.82;8.18;;;13.00;96.70;;;;;;4984691;28;20563;-75
2022/03/16 01:17:24;;;;;;;14.50;7.93;;;13.00;96.70;;;;;;5000754;28;20051;-75
2022/03/16 01:19:55;;;;;;;11.70;8.02;;;12.90;96.70;;;;;;4987120;28;20556;-75
2022/03/16 01:22:23;;;;;;;13.07;8.25;;;12.90;96.70;;;;;;5004065;28;20506;-75
2022/03/16 01:24:52;;;;;;;11.90;8.63;;;12.90;96.70;;;;;;4971557;28;20089;-75
2022/03/16 01:27:22;;;;;;;8.80;7.47;;;12.80;96.70;;;;;;4971867;28;20058;-75
2022/03/16 01:29:50;;;;;;;9.48;7.80;;;12.90;96.70;;;;;;4984505;28;20047;-75
2022/03/16 01:32:18;;;;;;;11.05;8.25;;;12.90;96.70;;;;;;4987780;28;20042;-75
2022/03/16 01:34:46;;;;;;;8.88;7.75;;;12.80;96.70;;;;;;4987595;28;20038;-75
2022/03/16 01:37:15;;;;;;;11.13;8.07;;;12.60;96.70;;;;;;5005627;28;20512;-75
2022/03/16 01:39:43;;;;;;;8.65;7.55;;;12.70;96.70;;;;;;4973225;28;20046;-75
2022/03/16 01:42:12;;;;;;;11.10;7.78;;;12.80;96.70;;;;;;5007286;28;20531;-75
2022/03/16 01:44:47;;;;;;;8.77;6.93;;;12.80;96.70;;;;;;4984674;28;20042;-75
2022/03/16 01:47:17;;;;;;;11.20;8.00;;;12.80;96.70;;;;;;4970589;28;20114;-75
2022/03/16 01:49:47;;;;;;;9.38;8.23;;;12.80;96.70;;;;;;4999685;28;20074;-75
2022/03/16 01:52:18;;;;;;;9.90;7.28;;;12.80;96.70;;;;;;5004295;28;20069;-75
2022/03/16 01:54:46;;;;;;;12.25;7.60;;;12.80;96.70;;;;;;4982033;28;20050;-75
2022/03/16 01:57:15;;;;;;;8.80;7.78;;;12.80;96.70;;;;;;4993952;28;20143;-75
2022/03/16 01:59:46;;;;;;;9.88;7.53;;;12.70;96.70;;;;;;4982340;28;20077;-75
2022/03/16 02:02:15;;;;;;;10.45;7.35;;;12.70;96.70;;;;;;4977569;28;20128;-75
2022/03/16 02:04:44;;;;;;;11.57;7.07;;;12.70;96.70;;;;;;4982776;28;20041;-75
2022/03/16 02:07:13;;;;;;;13.85;7.20;;;12.70;96.70;;;;;;4974116;28;20054;-76
2022/03/16 02:09:42;;;;;;;8.75;6.43;;;12.70;96.70;;;;;;4970436;28;20770;-75
2022/03/16 02:12:12;;;;;;;9.82;7.30;;;12.70;96.70;;;;;;4970492;28;20041;-76
2022/03/16 02:14:41;;;;;;;12.00;8.20;;;12.70;96.70;;;;;;5000273;28;20484;-75
2022/03/16 02:17:11;;;;;;;11.82;6.47;;;12.70;96.70;;;;;;4988236;28;20432;-75
2022/03/16 02:19:39;;;;;;;8.15;6.65;;;12.70;96.70;;;;;;5001566;28;20515;-75
2022/03/16 02:22:13;;;;;;;8.45;7.05;;;12.70;96.70;;;;;;5003087;28;20085;-76
2022/03/16 02:24:43;;;;;;;9.07;7.25;;;12.80;96.70;;;;;;5018425;28;20140;-75
2022/03/16 02:27:12;;;;;;;9.32;6.55;;;12.80;96.70;;;;;;5000459;28;20481;-75
2022/03/16 02:29:40;;;;;;;9.45;7.18;;;12.80;96.70;;;;;;5007967;28;20508;-81
2022/03/16 02:32:10;;;;;;;10.27;6.82;;;12.80;96.70;;;;;;4974736;28;20061;-81
2022/03/16 02:34:39;;;;;;;9.70;6.32;;;12.80;96.70;;;;;;4971602;28;20054;-76
2022/03/16 02:37:07;;;;;;;8.82;6.35;;;12.90;96.70;;;;;;4948516;28;20113;-75
2022/03/16 02:39:35;;;;;;;9.77;6.60;;;12.90;96.70;;;;;;4945461;28;20070;-76
2022/03/16 02:42:06;;;;;;;10.77;7.35;;;12.80;96.70;;;;;;4947209;28;20047;-76
2022/03/16 02:44:34;;;;;;;8.90;6.18;;;12.80;96.70;;;;;;4945095;28;20082;-76
2022/03/16 02:47:07;;;;;;;7.28;5.82;;;12.80;96.70;;;;;;4945705;28;20949;-76
2022/03/16 02:49:35;;;;;;;9.02;6.80;;;12.80;96.70;;;;;;4962971;28;20119;-80
2022/03/16 02:52:07;;;;;;;7.82;5.70;;;12.80;96.70;;;;;;4963521;28;20047;-76
2022/03/16 02:54:35;;;;;;;7.38;6.13;;;12.80;96.70;;;;;;4983549;28;20054;-76
2022/03/16 02:57:05;;;;;;;7.43;5.85;;;12.70;96.70;;;;;;4944222;28;20756;-75
2022/03/16 02:59:33;;;;;;;7.88;6.30;;;12.70;96.70;;;;;;4946933;28;20051;-75
2022/03/16 03:02:01;;;;;;;9.93;6.22;;;12.70;96.70;;;;;;4944744;28;20047;-75
2022/03/16 03:04:30;;;;;;;8.85;6.07;;;12.70;96.70;;;;;;4979081;28;20086;-76
2022/03/16 03:06:59;;;;;;;8.68;6.13;;;12.70;96.70;;;;;;4943853;28;20476;-75
2022/03/16 03:09:27;;;;;;;7.53;5.90;;;12.80;96.70;;;;;;4979749;28;20051;-76
2022/03/16 03:11:59;;;;;;;7.72;5.82;;;12.80;96.70;;;;;;4976414;28;20055;-77
2022/03/16 03:14:29;;;;;;;8.63;6.13;;;12.80;96.70;;;;;;4953483;28;20051;-75
2022/03/16 03:16:58;;;;;;;6.97;5.63;;;12.80;96.70;;;;;;4955678;28;20417;-76
2022/03/16 03:19:27;;;;;;;7.20;5.63;;;12.80;96.70;;;;;;4944590;28;20446;-76
2022/03/16 03:21:55;;;;;;;10.00;6.35;;;12.80;96.70;;;;;;4961585;28;20039;-76
2022/03/16 03:24:23;;;;;;;10.48;6.07;;;12.80;96.70;;;;;;4948298;28;20074;-75
2022/03/16 03:26:51;;;;;;;8.60;6.63;;;12.80;96.70;;;;;;4946686;28;20756;-75
2022/03/16 03:29:20;;;;;;;12.73;6.43;;;12.80;96.70;;;;;;4964844;28;20145;-76
2022/03/16 03:31:49;;;;;;;11.85;6.13;;;12.80;96.70;;;;;;4949584;28;20051;-76
2022/03/16 03:34:18;;;;;;;7.93;5.95;;;12.80;96.70;;;;;;4979216;28;20067;-76
2022/03/16 03:36:46;;;;;;;9.80;6.47;;;12.80;96.70;;;;;;4982947;28;20148;-76
2022/03/16 03:39:14;;;;;;;7.28;5.68;;;12.80;96.70;;;;;;4973910;28;20093;-76
2022/03/16 03:41:43;;;;;;;7.57;5.70;;;12.80;96.70;;;;;;5000260;28;20673;-76
2022/03/16 03:44:11;;;;;;;6.43;5.68;;;12.70;96.70;;;;;;5000466;28;20412;-76
2022/03/16 03:46:39;;;;;;;7.45;5.50;;;12.70;96.70;;;;;;4970958;28;20122;-76
2022/03/16 03:49:09;;;;;;;11.15;6.10;;;12.80;96.70;;;;;;4970593;28;20057;-76
2022/03/16 03:51:37;;;;;;;9.75;6.50;;;12.80;96.70;;;;;;4987232;28;20607;-76
2022/03/16 03:54:05;;;;;;;10.05;5.72;;;12.80;96.70;;;;;;4981719;28;20051;-76
2022/03/16 03:56:33;;;;;;;7.75;5.85;;;12.80;96.70;;;;;;4970918;28;20078;-75
2022/03/16 03:59:01;;;;;;;10.32;6.55;;;12.70;96.70;;;;;;4969617;28;20512;-76
2022/03/16 04:01:29;;;;;;;9.13;6.53;;;12.70;96.70;;;;;;4988703;28;20054;-76
2022/03/16 04:03:58;;;;;;;7.47;5.70;;;12.80;96.70;;;;;;4982230;28;20071;-76
2022/03/16 04:06:27;;;;;;;10.55;6.80;;;12.80;96.70;;;;;;4998659;28;20456;-76
2022/03/16 04:08:55;;;;;;;7.82;6.35;;;12.80;96.70;;;;;;4966249;28;20161;-76
2022/03/16 04:11:23;;;;;;;8.45;6.28;;;12.80;96.70;;;;;;4967043;28;20902;-76
2022/03/16 04:13:52;;;;;;;10.02;6.85;;;12.80;96.70;;;;;;4986492;28;20719;-76
2022/03/16 04:16:20;;;;;;;9.35;6.25;;;12.80;96.70;;;;;;4997184;28;20061;-76
2022/03/16 04:18:48;;;;;;;9.07;6.15;;;12.80;96.70;;;;;;4982452;28;20089;-76
2022/03/16 04:21:17;;;;;;;10.40;5.60;;;12.90;96.70;;;;;;4967340;28;20051;-75
2022/03/16 04:23:46;;;;;;;8.93;5.75;;;12.90;96.70;;;;;;4997031;28;20126;-76
2022/03/16 04:26:14;;;;;;;7.57;6.38;;;12.90;96.70;;;;;;5012446;28;20070;-76
2022/03/16 04:28:43;;;;;;;9.52;5.97;;;12.90;96.70;;;;;;4997658;28;20074;-75
2022/03/16 04:31:11;;;;;;;7.68;5.55;;;12.80;96.70;;;;;;5016030;28;20130;-76
2022/03/16 04:33:39;;;;;;;8.85;5.80;;;12.80;96.70;;;;;;4964680;28;20042;-76
2022/03/16 04:36:07;;;;;;;7.10;5.88;;;12.80;96.70;;;;;;4972956;28;20109;-76
2022/03/16 04:38:36;;;;;;;10.90;5.90;;;12.80;96.70;;;;;;4997468;28;20045;-76
2022/03/16 04:41:05;;;;;;;7.18;6.18;;;12.70;96.70;;;;;;4965661;28;20070;-76
2022/03/16 04:43:34;;;;;;;8.02;6.20;;;12.70;96.70;;;;;;4964461;28;20050;-76
2022/03/16 04:46:02;;;;;;;7.40;5.93;;;12.70;96.70;;;;;;4970031;28;20049;-76
2022/03/16 04:48:30;;;;;;;8.00;6.10;;;12.70;96.70;;;;;;4981156;28;20455;-76
2022/03/16 04:50:58;;;;;;;8.52;5.72;;;12.70;96.70;;;;;;5002734;28;20822;-75
2022/03/16 04:53:26;;;;;;;7.15;5.75;;;12.70;96.70;;;;;;4966296;28;20043;-77
2022/03/16 04:55:55;;;;;;;7.95;5.75;;;12.70;96.70;;;;;;4968694;28;20043;-76
2022/03/16 04:58:24;;;;;;;7.93;5.43;;;12.80;96.70;;;;;;4997054;28;20073;-76
2022/03/16 05:00:52;;;;;;;8.15;5.70;;;12.80;96.70;;;;;;4996439;28;20047;-76
2022/03/16 05:03:21;;;;;;;10.15;5.95;;;12.80;96.70;;;;;;4966734;28;20065;-76
2022/03/16 05:05:49;;;;;;;9.65;4.90;;;12.80;96.70;;;;;;4982400;28;20057;-76
2022/03/16 05:08:17;;;;;;;8.45;5.40;;;12.90;96.70;;;;;;4982427;28;20500;-76
2022/03/16 05:10:45;;;;;;;6.72;5.50;;;12.90;96.70;;;;;;4985542;28;20055;-76
2022/03/16 05:13:13;;;;;;;6.43;5.32;;;12.90;96.70;;;;;;4964929;28;20043;-76
2022/03/16 05:15:43;;;;;;;6.80;5.18;;;13.00;96.70;;;;;;4997865;28;20386;-76
2022/03/16 05:18:11;;;;;;;8.07;5.10;;;13.00;96.70;;;;;;4996185;28;20051;-76
2022/03/16 05:20:39;;;;;;;7.00;5.38;;;13.00;96.70;;;;;;4968788;28;20070;-76
2022/03/16 05:23:07;;;;;;;5.25;4.78;;;13.00;96.70;;;;;;4963776;28;20046;-76
2022/03/16 05:25:35;;;;;;;8.02;5.03;;;13.00;96.70;;;;;;4996549;28;20046;-76
2022/03/16 05:28:04;;;;;;;8.15;4.72;;;13.00;96.70;;;;;;4998217;28;20055;-76
2022/03/16 05:30:32;;;;;;;6.20;4.70;;;13.00;96.70;;;;;;4997034;28;20517;-76
2022/03/16 05:33:02;;;;;;;9.25;4.82;;;13.00;96.70;;;;;;4996190;28;20134;-76
2022/03/16 05:35:31;;;;;;;8.95;5.00;;;13.00;96.70;;;;;;4957221;28;20054;-77
2022/03/16 05:38:02;;;;;;;6.75;4.78;;;13.00;96.70;;;;;;4966356;28;20125;-75
2022/03/16 05:40:30;;;;;;;7.80;4.63;;;13.00;96.70;;;;;;4965372;28;20074;-75
2022/03/16 05:42:58;;;;;;;5.20;4.28;;;13.10;96.70;;;;;;4967678;28;20070;-75
2022/03/16 05:45:26;;;;;;;8.32;5.00;;;13.10;96.70;;;;;;4979036;28;20050;-75
2022/03/16 05:47:55;;;;;;;7.10;4.93;;;13.10;96.70;;;;;;4995901;28;21555;-76
2022/03/16 05:50:28;;;;;;;8.10;4.88;;;13.10;96.70;;;;;;4979691;28;20513;-76
2022/03/16 05:52:56;;;;;;;9.50;4.72;;;13.20;96.70;;;;;;4997885;28;20446;-75
2022/03/16 05:55:25;;;;;;;8.93;4.82;;;13.20;96.70;;;;;;4964522;28;20122;-75
2022/03/16 05:57:54;;;;;;;8.70;5.00;;;13.10;96.70;;;;;;4966585;28;20106;-75
2022/03/16 06:00:22;;;;;;;6.20;4.65;;;13.10;96.70;;;;;;4964552;28;20049;-76
2022/03/16 06:02:51;;;;;;;6.15;4.35;;;13.10;96.70;;;;;;4996003;28;20121;-76
2022/03/16 06:05:26;;;;;;;6.35;4.90;;;13.10;96.70;;;;;;4979330;28;20047;-77
2022/03/16 06:07:54;;;;;;;9.25;5.18;;;13.20;96.70;;;;;;4981461;28;20050;-76
2022/03/16 06:10:22;;;;;;;9.43;4.57;;;13.20;96.70;;;;;;4995827;28;20043;-76
2022/03/16 06:12:55;;;;;;;9.65;4.85;;;13.20;96.70;;;;;;4981348;28;20445;-76
2022/03/16 06:15:25;;;;;;;6.95;4.30;;;13.20;96.70;;;;;;4959846;28;20094;-77
2022/03/16 06:17:56;;;;;;;11.80;5.40;;;13.20;96.70;;;;;;4971865;28;20078;-77
2022/03/16 06:20:31;;;;;;;9.40;5.25;;;13.20;96.70;;;;;;5011917;28;20050;-76
2022/03/16 06:22:59;;;;;;;6.85;4.78;;;13.20;96.70;;;;;;4964078;28;20051;-76
2022/03/16 06:25:32;;;;;;;9.50;4.43;;;13.20;96.70;;;;;;4962949;28;20054;-76
2022/03/16 06:28:00;;;;;;;7.10;4.60;;;13.20;96.70;;;;;;4968384;28;20045;-76
2022/03/16 06:30:28;;;;;;;5.80;4.13;;;13.30;96.70;;;;;;4965507;28;20050;-76
2022/03/16 06:32:56;;;;;;;5.97;4.30;;;13.30;96.70;;;;;;4963100;28;20129;-76
2022/03/16 06:35:26;;;;;;;5.53;4.32;;;13.30;96.70;;;;;;4971548;28;20495;-75
2022/03/16 06:37:54;;;;;;;4.30;3.90;;;13.30;96.70;;;;;;4983889;28;20049;-76
2022/03/16 06:40:22;;;;;;;10.27;4.22;;;13.40;96.70;;;;;;4984781;28;20077;-76
2022/03/16 06:42:52;;;;;;;7.00;4.10;;;13.40;96.70;;;;;;4982571;28;20046;-77
2022/03/16 06:45:21;;;;;;;6.65;4.03;;;13.40;96.70;;;;;;4987625;28;20507;-76
2022/03/16 06:47:50;;;;;;;7.25;3.97;;;13.40;96.70;;;;;;4982202;28;20628;-76
2022/03/16 06:50:18;;;;;;;6.90;4.05;;;13.40;96.70;;;;;;5004435;28;20046;-77
2022/03/16 06:52:48;;;;;;;5.60;3.78;;;13.40;96.70;;;;;;4998230;28;20111;-76
2022/03/16 06:55:16;;;;;;;6.93;4.40;;;13.40;96.70;;;;;;4989452;28;20096;-78
2022/03/16 06:57:44;;;;;;;8.05;4.30;;;13.30;96.70;;;;;;4983223;28;20061;-77
2022/03/16 07:00:14;;;;;;;7.22;4.35;;;13.30;96.70;;;;;;4982668;28;20579;-77
2022/03/16 07:02:54;;;;;;;5.43;3.80;;;13.40;96.70;;;;;;4969043;28;20057;-80
2022/03/16 07:05:26;;;;;;;4.75;3.95;;;13.40;96.70;;;;;;5000108;28;20105;-81
2022/03/16 07:07:57;;;;;;;8.23;4.07;;;13.40;96.70;;;;;;5006050;28;20039;-81
2022/03/16 07:10:31;;;;;;;5.53;3.83;;;13.50;96.70;;;;;;4987610;28;20050;-82
2022/03/16 07:12:59;;;;;;;4.47;2.95;;;13.50;96.70;;;;;;4993649;28;20040;-82
2022/03/16 07:15:30;;;;;;;5.63;3.60;;;13.50;96.70;;;;;;5002980;28;20158;-82
2022/03/16 07:17:59;;;;;;;6.10;3.53;;;13.50;96.70;;;;;;5003530;28;20051;-81
2022/03/16 07:20:27;;;;;;;5.75;3.70;;;13.50;96.70;;;;;;4973127;28;20054;-83
2022/03/16 07:23:05;;;;;;;7.07;4.05;;;13.50;96.70;;;;;;4989417;28;20042;-84
2022/03/16 07:25:37;;;;;;;6.43;3.50;;;13.50;96.70;;;;;;5003118;28;20560;-85
2022/03/16 07:28:06;;;;;;;5.78;4.10;;;13.50;96.70;;;;;;4988431;28;20093;-84
2022/03/16 07:30:35;;;;;;;6.25;3.92;;;13.60;96.70;;;;;;4972007;28;20044;-82
2022/03/16 07:33:03;;;;;;;9.10;4.03;;;13.60;96.70;;;;;;4986409;28;20066;-84
2022/03/16 07:35:32;;;;;;;5.43;3.72;;;13.60;96.70;;;;;;4974733;28;20626;-82
2022/03/16 07:38:03;;;;;;;9.43;4.45;;;13.60;96.70;;;;;;4991503;28;20057;-83
2022/03/16 07:40:36;;;;;;;7.30;4.13;;;13.60;96.70;;;;;;4978487;28;20046;-83
2022/03/16 07:43:05;;;;;;;8.80;4.30;;;13.50;96.70;;;;;;4974175;28;20552;-84
2022/03/16 07:45:34;;;;;;;6.57;4.28;;;13.50;96.70;;;;;;5003535;28;20054;-84
2022/03/16 07:48:03;;;;;;;6.03;3.85;;;13.60;96.70;;;;;;5017100;28;20089;-83
2022/03/16 07:50:31;;;;;;;9.20;4.50;;;13.60;96.70;;;;;;4991174;28;20046;-83
2022/03/16 07:53:00;;;;;;;8.73;4.00;;;13.60;96.70;;;;;;4972720;28;20595;-84
2022/03/16 07:55:29;;;;;;;6.90;4.45;;;13.60;96.70;;;;;;4997156;28;20038;-79
2022/03/16 07:57:57;;;;;;;6.20;4.40;;;13.60;96.70;;;;;;4988922;28;20070;-78
2022/03/16 08:00:26;;;;;;;8.07;4.10;;;13.70;96.70;;;;;;4961524;28;20121;-78
2022/03/16 08:02:57;;;;;;;6.43;4.18;;;13.70;96.70;;;;;;4995552;28;20046;-78
2022/03/16 08:05:25;;;;;;;8.68;4.93;;;13.80;96.70;;;;;;4969706;28;20137;-78
2022/03/16 08:07:53;;;;;;;6.82;4.18;;;13.80;96.70;;;;;;5000171;28;20149;-78
2022/03/16 08:10:21;;;;;;;7.90;4.35;;;13.80;96.70;;;;;;4984450;28;20042;-78
2022/03/16 08:12:51;;;;;;;8.07;4.25;;;13.90;96.70;;;;;;4965800;28;20054;-78
2022/03/16 08:15:19;;;;;;;7.03;4.72;;;13.90;96.70;;;;;;5000765;28;20069;-78
2022/03/16 08:17:47;;;;;;;8.15;4.25;;;13.90;96.70;;;;;;5006300;28;20050;-78
2022/03/16 08:20:15;;;;;;;6.70;4.20;;;13.90;96.70;;;;;;4971352;28;20130;-79
2022/03/16 08:22:43;;;;;;;9.65;4.65;;;14.00;96.70;;;;;;5016636;28;20050;-79
2022/03/16 08:25:12;;;;;;;9.32;4.13;;;14.00;96.70;;;;;;5008492;28;20177;-78
2022/03/16 08:27:40;;;;;;;7.43;4.30;;;14.10;96.70;;;;;;4988277;28;20084;-78
2022/03/16 08:30:11;;;;;;;6.50;4.00;;;14.10;96.70;;;;;;4991268;28;20043;-78
2022/03/16 08:32:40;;;;;;;6.32;4.13;;;14.10;96.70;;;;;;5006393;28;20053;-78
2022/03/16 08:35:11;;;;;;;4.65;3.70;;;14.20;96.70;;;;;;5000539;28;20180;-78
2022/03/16 08:37:39;;;;;;;5.45;4.15;;;14.10;96.70;;;;;;4971500;28;20057;-83
2022/03/16 08:40:08;;;;;;;6.25;4.20;;;14.10;96.70;;;;;;4989533;28;20122;-85
2022/03/16 08:42:36;;;;;;;5.90;3.75;;;14.20;96.70;;;;;;4970698;28;20078;-84
2022/03/16 08:45:05;;;;;;;6.25;3.67;;;14.20;96.70;;;;;;4970845;28;20047;-84
2022/03/16 08:47:38;;;;;;;8.27;3.75;;;14.20;96.70;;;;;;4971746;28;20058;-83
2022/03/16 08:50:07;;;;;;;5.60;3.97;;;14.30;96.70;;;;;;4974028;28;20078;-83
2022/03/16 08:52:35;;;;;;;5.82;3.80;;;14.30;96.70;;;;;;4986372;28;20055;-83
2022/03/16 08:55:05;;;;;;;4.82;4.22;;;14.30;96.70;;;;;;4971732;28;20045;-82
2022/03/16 08:57:37;;;;;;;6.57;4.38;;;14.30;96.70;;;;;;4967113;28;20069;-82
2022/03/16 09:00:06;;;;;;;5.68;3.75;;;14.30;96.70;;;;;;4986240;28;20477;-83
2022/03/16 09:02:34;;;;;;;9.40;4.82;;;14.40;96.70;;;;;;4970965;28;20054;-84
2022/03/16 09:05:05;;;;;;;9.90;4.70;;;14.40;96.70;;;;;;4986330;28;20050;-83
2022/03/16 09:07:33;;;;;;;6.78;3.60;;;14.30;96.70;;;;;;4986217;28;20051;-83
2022/03/16 09:10:02;;;;;;;6.28;4.03;;;14.40;96.70;;;;;;4990830;28;20050;-83
2022/03/16 09:12:30;;;;;;;7.88;3.95;;;14.50;96.70;;;;;;4998404;28;20062;-83
2022/03/16 09:14:59;;;;;;;5.03;3.80;;;14.50;96.70;;;;;;4978146;28;20039;-84
2022/03/16 09:17:30;;;;;;;6.32;3.85;;;14.60;96.70;;;;;;5016149;28;20056;-83
2022/03/16 09:19:59;;;;;;;6.22;3.65;;;14.60;96.70;;;;;;4972723;28;20078;-84
2022/03/16 09:22:28;;;;;;;5.80;3.75;;;14.60;96.70;;;;;;4969767;28;20540;-84
2022/03/16 09:24:57;;;;;;;8.82;3.92;;;14.70;96.70;;;;;;4970425;28;20134;-82
2022/03/16 09:27:26;;;;;;;5.13;3.72;;;14.70;96.70;;;;;;4984618;28;20505;-83
2022/03/16 09:29:55;;;;;;;7.43;4.25;;;14.70;96.70;;;;;;4968396;28;20038;-84
2022/03/16 09:32:23;;;;;;;8.85;4.03;;;14.70;96.70;;;;;;4985643;28;20493;-83
2022/03/16 09:34:52;;;;;;;6.45;4.25;;;14.70;96.70;;;;;;4972404;28;20059;-83
2022/03/16 09:37:20;;;;;;;4.80;3.47;;;14.70;96.70;;;;;;5007392;28;20054;-83
2022/03/16 09:39:50;;;;;;;4.78;3.47;;;14.70;96.70;;;;;;4986840;28;20492;-84
2022/03/16 09:42:22;;;;;;;9.80;4.10;;;14.70;96.70;;;;;;4989298;28;20042;-83
2022/03/16 09:44:53;;;;;;;6.85;3.90;;;14.80;96.70;;;;;;4975555;28;20121;-83
2022/03/16 09:47:22;;;;;;;6.28;3.70;;;14.80;96.70;;;;;;5006575;28;20054;-83
2022/03/16 09:49:52;;;;;;;6.72;3.05;;;14.80;96.70;;;;;;5005170;28;20043;-82
2022/03/16 09:52:20;;;;;;;7.25;3.42;;;14.80;96.70;;;;;;4977509;28;20054;-83
2022/03/16 09:54:50;;;;;;;9.23;3.33;;;14.80;96.70;;;;;;4972985;28;20053;-83
2022/03/16 09:57:19;;;;;;;5.72;3.25;;;14.80;96.70;;;;;;4973337;28;20149;-84
2022/03/16 09:59:51;;;;;;;8.43;3.30;;;14.90;96.70;;;;;;4991032;28;20066;-84
2022/03/16 10:02:21;;;;;;;7.32;3.42;;;14.80;96.70;;;;;;5020571;28;20051;-85
2022/03/16 10:04:50;;;;;;;6.07;3.30;;;14.90;96.70;;;;;;4981773;28;20913;-83
2022/03/16 10:07:18;;;;;;;6.20;3.78;;;15.00;96.70;;;;;;4972576;28;20125;-83
2022/03/16 10:15:21;;;;;;;6.13;3.63;;;15.30;96.70;;;;;;4986235;28;20050;-82
2022/03/16 10:17:52;;;;;;;4.82;3.25;;;15.30;96.70;;;;;;4972403;28;20046;-83
2022/03/16 10:20:26;;;;;;;7.82;3.55;;;15.30;96.70;;;;;;4988590;28;20149;-82
2022/03/16 10:23:03;;;;;;;5.07;3.40;;;15.30;96.70;;;;;;5005067;28;20046;-82
2022/03/16 10:25:34;;;;;;;7.07;3.53;;;15.20;96.70;;;;;;4964203;28;20107;-84
2022/03/16 10:28:13;;;;;;;6.43;3.22;;;15.30;96.70;;;;;;4989478;28;20042;-83
2022/03/16 10:30:52;;;;;;;7.20;3.25;;;15.30;96.70;;;;;;4990548;28;20832;-84
2022/03/16 10:33:20;;;;;;;8.15;4.07;;;15.30;96.70;;;;;;5000632;28;20057;-84
2022/03/16 10:36:03;;;;;;;6.57;3.95;;;15.30;96.70;;;;;;4984086;28;20058;-84
2022/03/16 10:38:36;;;;;;;7.13;3.47;;;15.30;96.70;;;;;;4996017;28;20146;-84
2022/03/16 10:41:13;;;;;;;7.38;3.10;;;15.40;96.70;;;;;;4992216;28;20058;-84
2022/03/16 10:46:34;;;;;;;4.93;3.92;;;15.60;96.70;;;;;;4969362;28;20113;-83
2022/03/16 10:49:04;;;;;;;6.22;3.92;;;15.70;96.70;;;;;;5006787;28;20122;-82
2022/03/16 10:51:33;;;;;;;4.93;3.83;;;15.70;96.70;;;;;;4985889;28;20050;-84
2022/03/16 10:54:22;;;;;;;9.13;4.10;;;15.80;96.70;;;;;;4969794;28;20117;-84
2022/03/16 10:56:52;;;;;;;8.23;3.75;;;15.90;96.70;;;;;;4983972;28;20046;-84
2022/03/16 10:59:27;;;;;;;6.70;3.65;;;16.00;96.70;;;;;;4974112;28;20089;-84
2022/03/16 11:02:01;;;;;;;5.68;3.08;;;16.00;96.70;;;;;;5003348;28;20046;-84
2022/03/16 11:04:32;;;;;;;7.47;3.50;;;16.10;96.70;;;;;;4970142;28;20046;-82
2022/03/16 11:07:01;;;;;;;6.47;3.22;;;16.00;96.70;;;;;;4984208;28;20146;-84
2022/03/16 11:09:31;;;;;;;4.20;3.15;;;16.10;96.70;;;;;;4975610;28;20046;-84
2022/03/16 11:14:50;;;;;;;6.45;3.50;;;16.10;96.70;;;;;;4969084;28;20042;-84
2022/03/16 11:17:19;;;;;;;7.18;3.45;;;16.10;96.70;;;;;;4985889;28;20050;-82
2022/03/16 11:19:51;;;;;;;6.35;3.58;;;16.10;96.70;;;;;;4986124;28;20038;-83
2022/03/16 11:22:24;;;;;;;7.43;3.60;;;16.10;96.70;;;;;;4993285;28;20058;-85
2022/03/16 11:25:01;;;;;;;6.05;3.85;;;16.10;96.70;;;;;;4984806;28;20082;-84
2022/03/16 11:27:43;;;;;;;7.65;3.40;;;15.90;96.70;;;;;;5000530;28;20047;-84
2022/03/16 11:30:19;;;;;;;6.45;3.63;;;15.90;96.70;;;;;;5016974;28;20066;-84
2022/03/16 11:32:47;;;;;;;;;;;15.80;96.70;;;;;;4976462;28;20046;-85
2022/03/16 11:35:16;;;;;;;5.45;3.33;;;15.80;96.70;;;;;;4983752;28;19926;-82
2022/03/16 11:37:46;;;;;;;6.90;3.60;;;15.70;96.70;;;;;;4998613;28;20046;-77
2022/03/16 11:40:16;;;;;;;5.95;3.30;;;15.70;96.70;;;;;;4997982;28;20497;-78
2022/03/16 11:43:15;;;;;;;5.65;3.40;;;15.70;96.70;;;;;;4982583;28;20709;-77
2022/03/16 11:45:48;;;;;;;7.05;3.42;;;15.70;96.70;;;;;;4978767;28;20070;-77
2022/03/16 11:48:55;;;;;;;6.68;3.88;;;15.70;96.70;;;;;;4968604;28;20066;-79
2022/03/16 11:51:24;;;;;;;5.75;3.15;;;15.70;96.70;;;;;;4959801;28;20047;-77
2022/03/16 11:54:09;;;;;;;5.88;3.78;;;15.80;96.70;;;;;;4978732;28;20182;-77
2022/03/16 11:56:45;;;;;;;5.43;3.30;;;15.80;96.70;;;;;;4979683;28;20049;-77
2022/03/16 11:59:34;;;;;;;3.97;2.97;;;15.80;96.70;;;;;;4948724;28;20061;-77
2022/03/16 12:02:10;;;;;;;5.78;3.58;;;15.70;96.70;;;;;;4948894;28;20503;-77
2022/03/16 12:04:40;;;;;;;5.82;3.45;;;15.70;96.70;;;;;;4981263;28;20057;-76
2022/03/16 12:07:11;;;;;;;6.45;3.60;;;15.80;96.70;;;;;;4966997;28;20045;-76
2022/03/16 12:09:42;;;;;;;4.53;3.38;;;15.80;96.70;;;;;;4950508;28;20222;-77
2022/03/16 12:15:32;;;;;;;3.97;3.10;;;15.80;96.70;;;;;;4960217;28;20445;-76
2022/03/16 12:18:38;;;;;;;6.10;2.97;;;15.80;96.70;;;;;;4939478;28;20487;-78
2022/03/16 12:21:10;;;;;;;3.95;2.85;;;15.80;96.70;;;;;;4948439;28;20571;-77
2022/03/16 12:23:52;;;;;;;4.65;3.00;;;15.80;96.70;;;;;;4982325;28;20121;-78
2022/03/16 12:26:24;;;;;;;5.63;2.70;;;15.70;96.70;;;;;;4997441;28;20162;-77
2022/03/16 12:29:03;;;;;;;4.28;2.88;;;15.70;96.70;;;;;;4967731;28;20073;-77
2022/03/16 12:31:34;;;;;;;5.68;3.38;;;15.70;96.70;;;;;;4980942;28;20039;-78
2022/03/16 12:34:05;;;;;;;6.20;3.50;;;15.70;96.70;;;;;;4963667;28;20414;-77
2022/03/16 12:36:35;;;;;;;6.03;3.35;;;15.70;96.70;;;;;;5001813;28;20082;-78
2022/03/16 12:39:12;;;;;;;6.82;3.88;;;15.70;96.70;;;;;;4965901;28;20137;-78
2022/03/16 12:44:42;;;;;;;6.20;3.35;;;15.80;96.70;;;;;;4995407;28;20047;-76
2022/03/16 12:47:18;;;;;;;6.25;3.13;;;15.80;96.70;;;;;;4996291;28;20046;-78
2022/03/16 12:49:48;;;;;;;6.80;3.33;;;15.80;96.70;;;;;;4977913;28;20050;-78
2022/03/16 12:52:17;;;;;;;4.45;3.60;;;15.80;96.70;;;;;;4981893;28;20051;-77
2022/03/16 12:54:46;;;;;;;7.65;3.55;;;15.70;96.70;;;;;;5013575;28;20054;-77
2022/03/16 12:57:15;;;;;;;7.55;3.67;;;15.70;96.70;;;;;;4965654;28;20038;-77
2022/03/16 12:59:46;;;;;;;8.23;4.50;;;15.70;96.70;;;;;;4965966;28;20058;-77
2022/03/16 13:02:18;;;;;;;9.55;4.10;;;15.70;96.70;;;;;;4966497;28;20074;-77
2022/03/16 13:04:51;;;;;;;9.60;5.40;;;15.70;96.70;;;;;;5013458;28;20498;-77
2022/03/16 13:07:20;;;;;;;9.85;5.38;;;15.70;96.70;;;;;;4997327;28;20101;-77
2022/03/16 13:09:48;;;;;;;7.78;3.90;;;15.70;96.70;;;;;;4964872;28;20453;-77
2022/03/16 13:12:17;;;;;;;7.50;3.70;;;15.70;96.70;;;;;;4981756;28;20057;-77
2022/03/16 13:14:47;;;;;;;15.85;4.05;;;15.80;96.70;;;;;;4996042;28;20043;-78
2022/03/16 13:17:16;;;;;;;4.05;3.33;;;15.90;96.70;;;;;;4949279;28;20518;-77